Time;durP1;ratioP1;P1;durP2;ratioP2;P2;SDS_P1;SDS_P2;PMS_P1;PMS_P2;Temp;Humidity;BMP_temperature;BMP_pressure;BME280_temperature;BME280_humidity;BME280_pressure;Samples;Min_cycle;Max_cycle;Signal;HPM_P1;HPM_P2
2023/05/07 00:00:00;;;;;;;1.90;1.50;;;15.90;99.90;;;16.22;100.00;100981.44;5204242;28;20128;-70
2023/05/07 00:02:33;;;;;;;1.85;1.48;;;15.90;99.90;;;16.22;100.00;100986.69;5204372;28;20045;-70
2023/05/07 00:05:06;;;;;;;2.38;1.50;;;15.90;99.90;;;16.21;100.00;100980.56;5204927;28;20042;-69
2023/05/07 00:07:38;;;;;;;1.63;1.30;;;15.90;99.90;;;16.20;100.00;100991.06;5185992;28;20050;-70
2023/05/07 00:10:12;;;;;;;1.63;1.23;;;15.90;99.90;;;16.19;100.00;100989.31;5204153;28;20042;-69
2023/05/07 00:12:45;;;;;;;1.48;1.23;;;15.90;99.90;;;16.17;100.00;100986.66;5204422;28;20045;-68
2023/05/07 00:15:17;;;;;;;1.80;1.40;;;15.90;99.90;;;16.17;100.00;100981.41;5204370;28;20046;-69
2023/05/07 00:17:49;;;;;;;1.58;1.13;;;15.80;99.90;;;16.15;100.00;100982.22;5204118;28;20140;-69
2023/05/07 00:20:21;;;;;;;1.70;1.35;;;15.80;99.90;;;16.13;100.00;100978.69;5204105;28;20100;-68
2023/05/07 00:22:53;;;;;;;2.13;1.60;;;15.90;99.90;;;16.09;100.00;100975.13;5203955;28;20045;-69
2023/05/07 00:25:26;;;;;;;3.85;1.60;;;15.80;99.90;;;16.08;100.00;100972.47;5204121;28;20052;-70
2023/05/07 00:28:03;;;;;;;1.70;1.60;;;15.80;99.90;;;16.08;100.00;100975.97;5204061;28;20113;-69
2023/05/07 00:30:35;;;;;;;2.20;1.65;;;15.80;99.90;;;16.05;100.00;100981.22;5187962;28;20052;-70
2023/05/07 00:33:08;;;;;;;1.55;1.45;;;15.80;99.90;;;16.03;100.00;100980.28;5190434;28;20041;-69
2023/05/07 00:35:40;;;;;;;2.03;1.55;;;15.80;99.90;;;16.03;100.00;100985.53;5190300;28;20060;-69
2023/05/07 00:38:12;;;;;;;2.10;1.60;;;15.80;99.90;;;16.04;100.00;100989.06;5189709;28;20045;-69
2023/05/07 00:40:45;;;;;;;2.03;1.63;;;15.80;99.90;;;16.04;100.00;100989.97;5190120;28;20045;-69
2023/05/07 00:43:18;;;;;;;1.63;1.33;;;15.80;99.90;;;16.05;100.00;100997.00;5207805;28;20065;-69
2023/05/07 00:45:51;;;;;;;1.73;1.40;;;15.80;99.90;;;16.05;100.00;100991.72;5190127;28;20136;-70
2023/05/07 00:48:24;;;;;;;1.95;1.50;;;15.80;99.90;;;16.05;100.00;100990.84;5189945;28;20041;-69
2023/05/07 00:50:57;;;;;;;2.08;1.30;;;15.80;99.90;;;16.04;100.00;100989.06;5189889;28;20045;-69
2023/05/07 00:53:30;;;;;;;1.67;1.20;;;15.80;99.90;;;16.04;100.00;100978.53;5189914;28;20453;-69
2023/05/07 00:56:02;;;;;;;1.77;1.48;;;15.80;99.90;;;16.05;100.00;100981.22;5189830;28;20493;-69
2023/05/07 00:58:36;;;;;;;2.15;1.52;;;15.80;99.90;;;16.04;100.00;100981.16;5189685;28;20132;-69
2023/05/07 01:01:08;;;;;;;1.70;1.23;;;15.80;99.90;;;16.03;100.00;100982.91;5207327;28;20072;-70
2023/05/07 01:03:41;;;;;;;1.42;1.30;;;15.80;99.90;;;16.03;100.00;100985.53;5207566;28;20056;-69
2023/05/07 01:06:16;;;;;;;1.80;1.33;;;15.80;99.90;;;16.04;100.00;100986.41;5189639;28;20500;-70
2023/05/07 01:08:50;;;;;;;2.30;1.25;;;15.80;99.90;;;16.05;100.00;100975.06;5207033;28;20049;-69
2023/05/07 01:11:22;;;;;;;1.98;1.45;;;15.80;99.90;;;16.04;100.00;100984.69;5207374;28;20107;-69
2023/05/07 01:13:56;;;;;;;1.70;1.33;;;15.80;99.90;;;16.06;100.00;100976.84;5189562;28;20041;-69
2023/05/07 01:16:28;;;;;;;1.73;1.23;;;15.80;99.90;;;16.06;100.00;100971.56;5207443;28;20129;-69
2023/05/07 01:19:01;;;;;;;1.60;1.30;;;15.80;99.90;;;16.05;100.00;100965.44;5206857;28;20076;-69
2023/05/07 01:21:35;;;;;;;1.35;1.25;;;15.80;99.90;;;16.05;100.00;100964.56;5189500;28;20038;-70
2023/05/07 01:24:11;;;;;;;1.88;1.40;;;15.80;99.90;;;16.06;100.00;100961.94;5189064;28;20125;-69
2023/05/07 01:26:44;;;;;;;1.52;1.30;;;15.80;99.90;;;16.05;100.00;100965.44;5207066;28;20082;-70
2023/05/07 01:29:16;;;;;;;2.42;1.40;;;15.80;99.90;;;16.04;100.00;100957.50;5205735;28;20421;-69
2023/05/07 01:31:51;;;;;;;1.70;1.40;;;15.80;99.90;;;16.02;100.00;100953.09;5189070;28;20521;-69
2023/05/07 01:34:25;;;;;;;1.35;1.25;;;15.80;99.90;;;16.02;100.00;100960.09;5189258;28;20624;-69
2023/05/07 01:36:59;;;;;;;1.92;1.35;;;15.80;99.90;;;16.00;100.00;100952.22;5188811;28;20107;-69
2023/05/07 01:39:33;;;;;;;1.38;1.23;;;15.70;99.90;;;15.97;100.00;100946.00;5188765;28;20045;-70
2023/05/07 01:42:05;;;;;;;1.30;1.20;;;15.70;99.90;;;15.95;100.00;100942.47;5206199;28;20468;-69
2023/05/07 01:44:37;;;;;;;1.40;1.30;;;15.70;99.90;;;15.94;100.00;100945.97;5188978;28;20041;-69
2023/05/07 01:47:10;;;;;;;2.00;1.52;;;15.70;99.90;;;15.92;100.00;100947.69;5206598;28;20049;-69
2023/05/07 01:49:43;;;;;;;2.10;1.90;;;15.70;99.90;;;15.91;100.00;100954.72;5205286;28;20493;-69
2023/05/07 01:52:15;;;;;;;1.52;1.30;;;15.70;99.90;;;15.90;100.00;100955.53;5206479;28;20171;-69
2023/05/07 01:54:49;;;;;;;1.70;1.42;;;15.70;99.90;;;15.92;100.00;100945.94;5188692;28;20138;-70
2023/05/07 01:57:21;;;;;;;1.30;1.20;;;15.70;99.90;;;15.91;100.00;100949.44;5206529;28;20053;-70
2023/05/07 01:59:53;;;;;;;2.25;1.60;;;15.60;99.90;;;15.91;100.00;100945.91;5188581;28;20048;-69
2023/05/07 02:02:25;;;;;;;2.92;1.50;;;15.70;99.90;;;15.92;100.00;100942.44;5188463;28;20542;-69
2023/05/07 02:05:01;;;;;;;1.73;1.40;;;15.70;99.90;;;15.90;100.00;100950.28;5188602;28;20382;-70
2023/05/07 02:07:33;;;;;;;1.90;1.50;;;15.70;99.90;;;15.89;100.00;100947.63;5188156;28;20095;-69
2023/05/07 02:10:08;;;;;;;2.42;1.75;;;15.70;99.90;;;15.90;100.00;100947.66;5188441;28;20045;-70
2023/05/07 02:12:40;;;;;;;1.63;1.33;;;15.70;99.90;;;15.92;100.00;100947.69;5188299;28;20071;-69
2023/05/07 02:15:13;;;;;;;1.70;1.20;;;15.70;99.90;;;15.93;100.00;100938.94;5206090;28;20034;-70
2023/05/07 02:18:01;;;;;;;1.80;1.20;;;15.70;99.90;;;15.93;100.00;100955.59;5206011;28;20472;-69
2023/05/07 02:20:33;;;;;;;1.45;1.33;;;15.70;99.90;;;15.93;100.00;100947.72;5188103;28;20405;-70
2023/05/07 02:23:05;;;;;;;1.85;1.63;;;15.70;99.90;;;15.92;100.00;100947.69;5188006;28;20041;-70
2023/05/07 02:25:39;;;;;;;1.40;1.20;;;15.60;99.90;;;15.91;100.00;100951.16;5206017;28;20124;-69
2023/05/07 02:28:11;;;;;;;1.85;1.45;;;15.60;99.90;;;15.88;100.00;100953.75;5206016;28;20045;-69
2023/05/07 02:30:54;;;;;;;1.83;1.40;;;15.60;99.90;;;15.86;100.00;100959.00;5187834;28;20128;-70
2023/05/07 02:33:27;;;;;;;2.60;1.73;;;15.60;99.90;;;15.84;100.00;100955.44;5188281;28;20391;-69
2023/05/07 02:36:07;;;;;;;2.55;1.75;;;15.60;99.90;;;15.84;100.00;100954.56;5187910;28;20073;-69
2023/05/07 02:38:41;;;;;;;2.35;1.40;;;15.60;99.90;;;15.84;100.00;100955.44;5187375;28;20049;-69
2023/05/07 02:41:15;;;;;;;1.65;1.30;;;15.60;99.90;;;15.83;100.00;100958.06;5187826;28;20050;-70
2023/05/07 02:43:47;;;;;;;1.75;1.55;;;15.60;99.90;;;15.82;100.00;100957.16;5187697;28;20510;-69
2023/05/07 02:46:19;;;;;;;2.28;1.30;;;15.60;99.90;;;15.81;100.00;100958.03;5205812;28;20112;-70
2023/05/07 02:48:57;;;;;;;2.15;1.48;;;15.60;99.90;;;15.80;100.00;100958.91;5187595;28;20470;-70
2023/05/07 02:51:32;;;;;;;2.15;1.23;;;15.50;99.90;;;15.80;100.00;100963.28;5205345;28;20406;-70
2023/05/07 02:54:07;;;;;;;2.05;1.17;;;15.50;99.90;;;15.78;100.00;100965.88;5186412;28;20050;-70
2023/05/07 02:56:40;;;;;;;1.98;1.50;;;15.50;99.90;;;15.76;100.00;100957.06;5187443;28;20049;-70
2023/05/07 02:59:13;;;;;;;1.48;1.13;;;15.50;99.90;;;15.73;100.00;100960.53;5187347;28;20047;-69
2023/05/07 03:01:48;;;;;;;1.77;1.35;;;15.50;99.90;;;15.72;100.00;100965.78;5187403;28;20127;-69
2023/05/07 03:04:21;;;;;;;1.40;1.30;;;15.40;99.90;;;15.69;100.00;100960.47;5187256;28;20144;-69
2023/05/07 03:06:53;;;;;;;1.95;1.13;;;15.40;99.90;;;15.66;100.00;100953.44;5187293;28;20079;-70
2023/05/07 03:09:26;;;;;;;2.17;1.30;;;15.40;99.90;;;15.64;100.00;100946.34;5187059;28;20384;-70
2023/05/07 03:12:01;;;;;;;1.77;1.42;;;15.40;99.90;;;15.61;100.00;100952.41;5187156;28;20312;-69
2023/05/07 03:14:34;;;;;;;1.80;1.15;;;15.40;99.90;;;15.60;100.00;100948.03;5187204;28;20049;-69
2023/05/07 03:17:06;;;;;;;3.05;1.23;;;15.40;99.90;;;15.62;100.00;100942.81;5187058;28;20060;-70
2023/05/07 03:19:38;;;;;;;1.65;1.38;;;15.40;99.90;;;15.62;100.00;100948.97;5186942;28;20049;-69
2023/05/07 03:22:10;;;;;;;1.70;1.35;;;15.40;99.90;;;15.63;100.00;100941.97;5204739;28;20052;-69
2023/05/07 03:24:42;;;;;;;2.20;1.55;;;15.40;99.90;;;15.61;100.00;100941.03;5187186;28;20460;-70
2023/05/07 03:27:15;;;;;;;2.38;1.40;;;15.30;99.90;;;15.61;100.00;100939.28;5204862;28;20053;-69
2023/05/07 03:29:48;;;;;;;1.60;1.23;;;15.40;99.90;;;15.59;100.00;100934.88;5186930;28;20055;-70
2023/05/07 03:32:21;;;;;;;1.70;1.38;;;15.40;99.90;;;15.58;100.00;100940.97;5187006;28;20064;-70
2023/05/07 03:34:53;;;;;;;1.30;1.10;;;15.30;99.90;;;15.57;100.00;100933.94;5204791;28;20041;-69
2023/05/07 03:37:26;;;;;;;1.17;1.00;;;15.30;99.90;;;15.57;100.00;100941.81;5186733;28;20082;-70
2023/05/07 03:39:59;;;;;;;1.42;1.17;;;15.30;99.90;;;15.57;100.00;100936.56;5187202;28;20046;-70
2023/05/07 03:42:34;;;;;;;1.35;1.20;;;15.30;99.90;;;15.56;100.00;100934.81;5204679;28;20528;-69
2023/05/07 03:45:07;;;;;;;2.00;1.33;;;15.30;99.90;;;15.56;100.00;100942.69;5186780;28;20587;-69
2023/05/07 03:47:40;;;;;;;2.25;1.23;;;15.30;99.90;;;15.56;100.00;100940.06;5186611;28;20529;-69
2023/05/07 03:50:14;;;;;;;2.10;1.55;;;15.30;99.90;;;15.54;100.00;100941.78;5204574;28;20041;-69
2023/05/07 03:52:46;;;;;;;2.10;1.33;;;15.30;99.90;;;15.52;100.00;100941.78;5186495;28;20133;-69
2023/05/07 03:55:22;;;;;;;1.65;1.30;;;15.30;99.90;;;15.53;100.00;100942.66;5186766;28;20049;-71
2023/05/07 03:58:00;;;;;;;2.72;1.60;;;15.30;99.90;;;15.53;100.00;100948.78;5186649;28;20045;-69
2023/05/07 04:00:38;;;;;;;1.90;1.70;;;15.30;99.90;;;15.54;100.00;100952.31;5204381;28;20065;-70
2023/05/07 04:03:15;;;;;;;1.90;1.50;;;15.30;99.90;;;15.54;100.00;100955.81;5186595;28;20042;-69
2023/05/07 04:08:29;;;;;;;1.70;1.38;;;15.30;99.90;;;15.52;100.00;100959.25;5155127;28;20053;-67
2023/05/07 04:11:01;;;;;;;1.52;1.25;;;15.30;99.90;;;15.52;100.00;100961.88;5168048;28;20515;-67
2023/05/07 04:13:37;;;;;;;;;;;15.30;99.90;;;15.52;100.00;100959.25;5167125;28;20553;-66
2023/05/07 04:16:11;;;;;;;1.98;1.23;;;15.30;99.90;;;15.52;100.00;100960.16;5166631;28;20029;-67
2023/05/07 04:18:44;;;;;;;2.15;1.50;;;15.30;99.90;;;15.53;100.00;100964.56;5150226;28;20046;-66
2023/05/07 04:21:17;;;;;;;1.50;1.30;;;15.30;99.90;;;15.55;100.00;100965.44;5167879;28;20129;-66
2023/05/07 04:23:50;;;;;;;1.60;1.15;;;15.30;99.90;;;15.57;100.00;100973.34;5167528;28;20038;-67
2023/05/07 04:26:23;;;;;;;1.52;1.27;;;15.30;99.90;;;15.56;100.00;100964.59;5167743;28;20051;-66
2023/05/07 04:28:57;;;;;;;2.08;1.10;;;15.30;99.90;;;15.57;100.00;100965.47;5166158;28;20056;-66
2023/05/07 04:31:30;;;;;;;1.65;1.20;;;15.30;99.90;;;15.57;100.00;100961.09;5166173;28;20070;-67
2023/05/07 04:34:02;;;;;;;2.05;1.10;;;15.40;99.90;;;15.61;100.00;100968.19;5167520;28;20384;-66
2023/05/07 04:36:34;;;;;;;1.35;1.25;;;15.40;99.90;;;15.61;100.00;100962.06;5166292;28;20196;-66
2023/05/07 04:39:11;;;;;;;1.50;1.20;;;15.40;99.90;;;15.62;100.00;100969.97;5165930;28;20042;-66
2023/05/07 04:41:45;;;;;;;1.40;1.25;;;15.40;99.90;;;15.63;100.00;100965.59;5166012;28;20047;-66
2023/05/07 04:44:19;;;;;;;1.92;1.30;;;15.40;99.90;;;15.63;100.00;100970.88;5167225;28;20038;-66
2023/05/07 04:46:51;;;;;;;3.05;1.50;;;15.40;99.90;;;15.64;100.00;100962.13;5167038;28;20042;-66
2023/05/07 04:49:23;;;;;;;1.60;1.30;;;15.40;99.90;;;15.63;100.00;100960.34;5167149;28;20042;-66
2023/05/07 04:51:58;;;;;;;1.90;1.40;;;15.40;99.90;;;15.60;100.00;100955.03;5149475;28;20549;-66
2023/05/07 04:54:30;;;;;;;1.67;1.40;;;15.40;99.90;;;15.59;100.00;100964.66;5166923;28;20100;-66
2023/05/07 04:57:05;;;;;;;1.45;1.23;;;15.40;99.90;;;15.62;100.00;100958.59;5166005;28;20651;-66
2023/05/07 04:59:38;;;;;;;1.70;1.33;;;15.40;99.90;;;15.65;100.00;100969.19;5165774;28;20077;-66
2023/05/07 05:02:11;;;;;;;1.73;1.48;;;15.40;99.90;;;15.68;100.00;100970.09;5166995;28;20065;-66
2023/05/07 05:04:44;;;;;;;2.35;1.50;;;15.50;99.90;;;15.71;100.00;100958.72;5149599;28;20097;-66
2023/05/07 05:07:16;;;;;;;1.40;1.27;;;15.50;99.90;;;15.72;100.00;100956.16;5165504;28;20050;-65
2023/05/07 05:09:49;;;;;;;1.67;1.33;;;15.50;99.90;;;15.75;100.00;100960.56;5166792;28;20126;-66
2023/05/07 05:12:21;;;;;;;2.05;1.38;;;15.50;99.90;;;15.79;100.00;100967.66;5166767;28;20042;-65
2023/05/07 05:14:54;;;;;;;1.73;1.25;;;15.50;99.90;;;15.82;100.00;100967.69;5165436;28;20137;-67
2023/05/07 05:17:27;;;;;;;1.52;1.13;;;15.60;99.90;;;15.88;100.00;100969.53;5164320;28;20061;-66
2023/05/07 05:19:59;;;;;;;1.77;1.20;;;15.60;99.90;;;15.93;100.00;100968.75;5149177;28;20133;-66
2023/05/07 05:22:31;;;;;;;1.45;1.10;;;15.70;99.90;;;16.07;100.00;100979.47;5165079;28;20054;-67
2023/05/07 05:25:06;;;;;;;1.90;1.33;;;15.70;99.90;;;16.23;100.00;100976.19;5166644;28;20066;-66
2023/05/07 05:27:38;;;;;;;2.70;1.70;;;15.90;99.90;;;16.41;100.00;100982.59;5148929;28;20049;-65
2023/05/07 05:30:13;;;;;;;2.25;1.50;;;16.00;99.90;;;16.60;100.00;100981.09;5164551;28;20478;-65
2023/05/07 05:32:47;;;;;;;2.75;1.67;;;16.20;99.90;;;16.73;100.00;100980.44;5164617;28;20441;-65
2023/05/07 05:35:19;;;;;;;1.75;1.25;;;16.30;99.90;;;16.81;100.00;100981.41;5137270;28;20385;-65
2023/05/07 05:37:51;;;;;;;1.67;1.35;;;16.40;99.90;;;16.89;100.00;100984.13;5150671;28;20503;-65
2023/05/07 05:40:24;;;;;;;2.92;1.42;;;16.50;99.90;;;16.94;100.00;100982.44;5140595;28;20396;-65
2023/05/07 05:42:57;;;;;;;2.80;1.30;;;16.60;99.90;;;16.98;100.00;100974.59;5156456;28;20046;-65
2023/05/07 05:45:31;;;;;;;3.33;1.40;;;16.70;99.90;;;17.04;100.00;100979.06;5145368;28;20049;-64
2023/05/07 05:48:03;;;;;;;1.60;1.30;;;16.70;99.90;;;17.03;100.00;100967.63;5147497;28;20499;-65
2023/05/07 05:50:36;;;;;;;2.70;1.33;;;16.80;99.90;;;17.00;100.00;100978.13;5166341;28;20038;-65
2023/05/07 05:53:09;;;;;;;1.70;1.30;;;16.80;99.90;;;16.93;100.00;100980.66;5148473;28;20039;-66
2023/05/07 05:55:42;;;;;;;1.83;1.50;;;16.70;99.90;;;16.85;100.00;100985.84;5152430;28;20122;-66
2023/05/07 05:58:14;;;;;;;1.55;1.20;;;16.70;99.90;;;16.84;100.00;100981.44;5157771;28;20043;-65
2023/05/07 06:00:53;;;;;;;1.40;1.10;;;16.70;99.90;;;16.89;100.00;100987.66;5147840;28;20463;-65
2023/05/07 06:03:26;;;;;;;1.42;1.20;;;16.60;99.90;;;16.91;100.00;100985.94;5154078;28;20092;-60
2023/05/07 06:06:00;;;;;;;2.63;1.42;;;16.70;99.90;;;16.95;100.00;100989.47;5151486;28;20050;-57
2023/05/07 06:08:32;;;;;;;1.58;1.40;;;16.70;99.90;;;16.97;100.00;100979.84;5153747;28;20051;-57
2023/05/07 06:11:05;;;;;;;2.33;1.23;;;16.70;99.90;;;17.00;100.00;100972.84;5157872;28;20058;-57
2023/05/07 06:13:41;;;;;;;2.40;1.42;;;16.70;99.90;;;17.01;100.00;100973.72;5140352;28;20039;-57
2023/05/07 06:16:15;;;;;;;1.42;1.10;;;16.70;99.90;;;16.99;100.00;100991.28;5152628;28;20581;-57
2023/05/07 06:18:49;;;;;;;1.45;1.10;;;16.70;99.90;;;17.00;100.00;100993.03;5152309;28;20129;-57
2023/05/07 06:21:21;;;;;;;2.58;1.20;;;16.80;99.90;;;17.00;100.00;100988.66;5161691;28;20042;-57
2023/05/07 06:23:54;;;;;;;2.55;1.40;;;16.80;99.90;;;17.03;100.00;100993.97;5160400;28;20181;-58
2023/05/07 06:26:27;;;;;;;2.60;1.42;;;16.80;99.90;;;17.04;100.00;100985.19;5159875;28;20042;-58
2023/05/07 06:28:59;;;;;;;1.55;1.20;;;16.80;99.90;;;17.10;100.00;100992.28;5161010;28;20046;-58
2023/05/07 06:31:32;;;;;;;1.40;1.30;;;16.80;99.90;;;17.14;100.00;100994.06;5156744;28;20453;-58
2023/05/07 06:34:09;;;;;;;1.30;1.17;;;16.90;99.90;;;17.16;100.00;100996.75;5142275;28;20515;-58
2023/05/07 06:36:43;;;;;;;2.63;1.30;;;16.90;99.90;;;17.16;100.00;100995.00;5159853;28;20046;-58
2023/05/07 06:39:45;;;;;;;1.65;1.23;;;16.90;99.90;;;17.18;100.00;101000.28;5162029;28;20065;-57
2023/05/07 06:42:17;;;;;;;1.35;1.25;;;16.90;99.90;;;17.21;100.00;100998.53;5146071;28;20054;-58
2023/05/07 06:44:53;;;;;;;1.27;0.98;;;16.90;99.90;;;17.27;100.00;101013.53;5162244;28;20061;-58
2023/05/07 06:47:26;;;;;;;1.17;1.05;;;17.00;99.90;;;17.32;100.00;101014.47;5155869;28;20038;-58
2023/05/07 06:50:00;;;;;;;1.60;1.15;;;17.00;99.90;;;17.37;100.00;101015.41;5145555;28;20514;-59
2023/05/07 06:52:36;;;;;;;1.40;0.90;;;17.10;99.90;;;17.43;100.00;101015.47;5147266;28;20042;-59
2023/05/07 06:55:11;;;;;;;;;;;17.10;99.90;;;17.50;100.00;101017.31;5166636;28;20053;-59
2023/05/07 06:57:43;;;;;;;1.50;1.40;;;17.20;99.90;;;17.62;100.00;101022.69;5147086;28;19940;-59
2023/05/07 07:00:17;;;;;;;1.90;1.30;;;17.30;99.90;;;17.76;100.00;101019.34;5150231;28;20507;-59
2023/05/07 07:02:56;;;;;;;2.50;0.93;;;17.40;99.90;;;17.89;100.00;101010.66;5149748;28;20040;-58
2023/05/07 07:05:31;;;;;;;1.58;0.93;;;17.50;99.90;;;18.05;100.00;101009.91;5135861;28;20049;-57
2023/05/07 07:08:04;;;;;;;1.70;1.05;;;17.60;99.90;;;18.24;100.00;101023.22;5146627;28;20058;-57
2023/05/07 07:10:37;;;;;;;2.58;1.58;;;17.70;99.90;;;18.41;100.00;101025.13;5162125;28;20042;-57
2023/05/07 07:13:09;;;;;;;1.77;1.05;;;17.90;99.90;;;18.62;100.00;101029.66;5154912;28;20046;-57
2023/05/07 07:15:41;;;;;;;1.52;1.02;;;18.10;99.90;;;18.94;100.00;101023.69;5143838;28;20046;-57
2023/05/07 07:18:15;;;;;;;2.50;1.15;;;18.30;99.90;;;19.22;100.00;101012.31;5158142;28;20038;-57
2023/05/07 07:20:49;;;;;;;2.13;1.15;;;18.60;99.90;;;19.38;100.00;101010.63;5148517;28;20046;-56
2023/05/07 07:23:21;;;;;;;2.63;1.25;;;18.80;99.90;;;19.54;100.00;101024.72;5163875;28;20038;-57
2023/05/07 07:25:54;;;;;;;2.72;1.40;;;18.90;99.90;;;19.68;100.00;101015.09;5163051;28;20043;-56
2023/05/07 07:28:26;;;;;;;2.28;1.13;;;19.10;99.90;;;19.82;100.00;101015.09;5161446;28;20108;-56
2023/05/07 07:30:58;;;;;;;1.17;1.08;;;19.20;99.90;;;19.97;100.00;101024.81;5158502;28;20050;-57
2023/05/07 07:33:32;;;;;;;1.77;1.17;;;19.30;99.90;;;20.02;100.00;101025.69;5162133;28;20479;-58
2023/05/07 07:36:06;;;;;;;2.53;1.27;;;19.40;99.90;;;19.97;100.00;101022.16;5163683;28;20050;-56
2023/05/07 07:38:38;;;;;;;2.50;1.10;;;19.40;99.90;;;19.99;100.00;101025.69;5162276;28;20066;-57
2023/05/07 07:41:11;;;;;;;2.03;1.13;;;19.50;99.90;;;20.08;100.00;101030.97;5145628;28;20046;-57
2023/05/07 07:43:43;;;;;;;1.23;1.05;;;19.50;99.90;;;20.16;100.00;101030.97;5163084;28;20027;-57
2023/05/07 07:46:15;;;;;;;2.80;1.23;;;19.60;99.90;;;20.16;99.71;101029.22;5162134;28;20068;-57
2023/05/07 07:48:50;;;;;;;2.35;1.30;;;19.60;99.90;;;20.29;99.65;101032.72;5158946;28;20096;-57
2023/05/07 07:51:22;;;;;;;2.10;1.20;;;19.70;99.90;;;20.52;99.31;101032.72;5161553;28;20046;-57
2023/05/07 07:53:54;;;;;;;1.95;1.17;;;19.80;99.90;;;20.80;98.53;101028.22;5159817;28;20038;-57
2023/05/07 07:56:26;;;;;;;1.67;1.10;;;20.10;99.90;;;21.16;97.54;101037.78;5147198;28;20047;-56
2023/05/07 07:58:58;;;;;;;2.35;1.35;;;20.30;99.90;;;21.44;96.14;101027.94;5140302;28;20430;-58
2023/05/07 08:01:31;;;;;;;1.45;0.98;;;20.60;99.90;;;21.59;94.77;101029.63;5148711;28;20074;-58
2023/05/07 08:04:06;;;;;;;1.40;1.02;;;20.70;99.90;;;21.62;93.28;101032.25;5142804;28;20495;-58
2023/05/07 08:06:42;;;;;;;1.38;1.27;;;20.80;99.90;;;21.69;92.96;101039.28;5144203;28;20046;-58
2023/05/07 08:09:15;;;;;;;1.75;1.27;;;20.90;99.90;;;21.86;91.50;101031.22;5160178;28;20475;-60
2023/05/07 08:11:47;;;;;;;2.20;1.20;;;21.00;99.90;;;22.11;90.80;101042.53;5135402;28;20042;-58
2023/05/07 08:14:20;;;;;;;1.45;1.20;;;21.10;99.90;;;22.28;89.74;101045.91;5160491;28;20042;-58
2023/05/07 08:16:54;;;;;;;2.05;1.13;;;21.20;99.90;;;22.28;88.87;101043.25;5162024;28;20066;-58
2023/05/07 08:19:27;;;;;;;1.52;1.30;;;21.30;99.90;;;22.33;88.64;101043.22;5160418;28;20077;-58
2023/05/07 08:21:59;;;;;;;2.25;1.50;;;21.40;99.90;;;22.40;88.17;101044.91;5143942;28;20047;-58
2023/05/07 08:24:32;;;;;;;2.20;1.25;;;21.40;99.90;;;22.32;87.97;101042.34;5159880;28;20074;-58
2023/05/07 08:27:05;;;;;;;2.17;1.30;;;21.40;99.90;;;22.09;88.64;101034.56;5144257;28;20039;-58
2023/05/07 08:29:37;;;;;;;2.15;1.10;;;21.30;99.90;;;21.90;89.43;101039.09;5161769;28;20038;-58
2023/05/07 08:32:09;;;;;;;2.72;1.10;;;21.20;99.90;;;21.74;90.11;101048.09;5144454;28;20054;-58
2023/05/07 08:34:42;;;;;;;1.48;1.27;;;21.10;99.90;;;21.64;90.20;101041.06;5144305;28;20045;-58
2023/05/07 08:37:15;;;;;;;2.30;1.33;;;21.00;99.90;;;21.51;90.79;101045.56;5143702;28;20104;-58
2023/05/07 08:39:47;;;;;;;1.58;1.27;;;20.90;99.90;;;21.39;90.48;101056.28;5160481;28;20073;-58
2023/05/07 08:42:25;;;;;;;1.38;1.00;;;20.80;99.90;;;21.26;91.23;101052.78;5139077;28;20053;-58
2023/05/07 08:45:00;;;;;;;1.42;1.13;;;20.70;99.90;;;21.23;91.59;101050.13;5156768;28;20053;-57
2023/05/07 08:47:45;;;;;;;2.90;1.40;;;20.60;99.90;;;21.48;90.55;101045.59;5137096;28;20143;-57
2023/05/07 08:50:19;;;;;;;1.60;1.13;;;20.80;99.90;;;21.76;89.67;101046.28;5143977;28;20137;-59
2023/05/07 08:52:51;;;;;;;;;;;20.90;99.90;;;22.11;88.58;101042.53;5162744;28;20061;-58
2023/05/07 08:55:25;;;;;;;2.00;1.27;;;21.20;99.90;;;22.58;86.63;101042.06;5143649;28;19922;-57
2023/05/07 08:57:57;;;;;;;1.20;1.00;;;21.50;99.90;;;23.16;84.94;101048.50;5148536;28;20046;-58
2023/05/07 09:00:29;;;;;;;2.42;1.23;;;21.80;99.60;;;24.24;81.96;101040.66;5163289;28;20688;-58
2023/05/07 09:03:02;;;;;;;1.98;1.00;;;22.50;99.00;;;25.50;76.91;101034.63;5148215;28;20050;-59
2023/05/07 09:05:36;;;;;;;1.42;1.10;;;23.40;97.20;;;26.42;73.59;101035.94;5149004;28;20050;-57
2023/05/07 09:08:09;;;;;;;3.03;1.10;;;24.10;95.10;;;27.10;72.06;101034.91;5147603;28;20046;-57
2023/05/07 09:10:43;;;;;;;1.15;1.00;;;24.80;93.60;;;27.49;70.59;101035.50;5160834;28;20050;-58
2023/05/07 09:13:17;;;;;;;1.10;1.00;;;25.20;92.20;;;27.43;68.52;101026.78;5145716;28;20499;-57
2023/05/07 09:15:50;;;;;;;1.80;1.10;;;25.50;89.80;;;27.16;68.77;101041.91;5148855;28;20034;-58
2023/05/07 09:18:24;;;;;;;1.88;1.08;;;25.50;88.10;;;26.60;69.02;101039.00;5155490;28;20039;-59
2023/05/07 09:20:58;;;;;;;1.85;0.95;;;25.20;86.00;;;26.19;70.84;101038.28;5143477;28;20050;-58
2023/05/07 09:23:32;;;;;;;1.60;1.00;;;24.90;87.40;;;26.03;72.23;101032.47;5165223;28;20039;-58
2023/05/07 09:26:07;;;;;;;1.73;1.15;;;24.90;88.60;;;25.86;72.51;101019.53;5149248;28;20108;-57
2023/05/07 09:28:41;;;;;;;1.30;1.13;;;24.70;88.70;;;25.44;73.51;101022.28;5150168;28;20049;-57
2023/05/07 09:31:15;;;;;;;3.75;1.30;;;24.50;89.10;;;25.31;74.41;101027.94;5141995;28;20145;-57
2023/05/07 09:33:47;;;;;;;1.30;0.93;;;24.30;90.00;;;25.20;74.38;101021.97;5164813;28;20045;-58
2023/05/07 09:36:21;;;;;;;1.17;1.00;;;24.30;90.00;;;25.12;74.59;101020.34;5162773;28;20050;-58
2023/05/07 09:38:56;;;;;;;1.48;1.08;;;24.20;90.10;;;24.97;74.48;101025.06;5146688;28;20093;-58
2023/05/07 09:41:29;;;;;;;2.08;1.23;;;24.10;89.70;;;25.04;75.60;101019.63;5146419;28;20055;-58
2023/05/07 09:44:10;;;;;;;2.15;1.25;;;24.10;90.40;;;25.28;75.97;101020.88;5147034;28;20505;-58
2023/05/07 09:46:54;;;;;;;1.30;1.08;;;24.20;90.90;;;25.34;74.33;101020.72;5155412;28;20069;-58
2023/05/07 09:49:36;;;;;;;1.38;1.13;;;24.30;90.00;;;25.21;73.55;101019.25;5146855;28;20039;-58
2023/05/07 09:52:15;;;;;;;1.55;1.13;;;24.30;88.80;;;25.02;74.50;101026.72;5145754;28;20344;-58
2023/05/07 09:54:55;;;;;;;2.30;1.00;;;24.20;89.40;;;24.68;74.86;101028.34;5153317;28;20049;-57
2023/05/07 09:57:32;;;;;;;2.13;1.30;;;23.90;89.20;;;24.47;75.60;101024.31;5137859;28;20454;-58
2023/05/07 10:00:11;;;;;;;2.08;1.30;;;23.80;89.70;;;24.32;76.30;101026.31;5146444;28;20061;-58
2023/05/07 10:02:53;;;;;;;1.30;1.20;;;23.60;90.10;;;24.41;77.00;101030.63;5157352;28;20528;-58
2023/05/07 10:05:33;;;;;;;1.20;1.10;;;23.60;90.70;;;24.40;76.19;101020.88;5162920;28;20035;-58
2023/05/07 10:08:10;;;;;;;1.48;1.10;;;23.60;90.30;;;24.30;75.69;101021.91;5214607;23;20033;-78
2023/05/07 10:10:44;;;;;;;1.52;1.08;;;23.60;90.10;;;24.21;76.44;101024.75;5166470;28;20548;-77
2023/05/07 10:13:20;;;;;;;1.75;1.00;;;23.50;90.30;;;24.20;76.25;101018.56;5163965;28;20045;-75
2023/05/07 10:15:58;;;;;;;1.33;1.02;;;23.50;90.40;;;24.24;76.47;101019.34;5165333;28;20054;-77
2023/05/07 10:18:35;;;;;;;1.67;1.10;;;23.50;90.40;;;24.21;76.19;101022.97;5151236;28;20074;-78
2023/05/07 10:21:18;;;;;;;1.88;1.20;;;23.50;90.30;;;24.30;75.95;101017.47;5180802;28;20053;-78
2023/05/07 10:24:01;;;;;;;1.73;1.13;;;23.50;90.30;;;24.50;75.78;101011.78;5166896;28;20104;-79
2023/05/07 10:26:37;;;;;;;2.40;1.10;;;23.60;90.20;;;24.85;75.21;101015.56;5159358;28;20038;-76
2023/05/07 10:29:17;;;;;;;1.02;0.98;;;23.80;90.20;;;25.23;74.07;101014.75;5166614;28;20073;-78
2023/05/07 10:31:56;;;;;;;3.20;0.95;;;24.10;89.50;;;25.56;72.53;101022.91;5178072;28;20134;-79
2023/05/07 10:34:48;;;;;;;1.23;0.95;;;24.40;87.70;;;25.77;71.77;101013.56;5168117;28;20060;-76
2023/05/07 10:37:23;;;;;;;0.98;0.93;;;24.60;86.60;;;25.96;71.43;101020.19;5148669;28;20042;-76